Lequire, Oklahoma
Current Conditions -  °F | °C
As of 4:55 PM on Wednesday 17 Dec 2014 (Local Time) from KGZL Reporting Station
Moderate Rain Moderate Rain  
Wind Chill: 28°   Ceiling: 700
Heat Index: 36°   Visibility: 3mi
Dew Point: 34°   Wind: 10mph
Humidity: 93%   Direction: 90°E
Pressure: 30.19"   Gusts: NA
Location:  35.1°N, 95.11°W
Report Text: KGZL 172255Z AUTO 09009KT 3SM RA BKN007 BKN060 OVC070 02/01 A3019 RMK AO2 P0020
Loading
Personal Weather Stations






























Interactive Weather Map New forecast layout! Learn more

10-Day Weather Forecast

Advertisements
Track Severe Weather on mobile